Time;durP1;ratioP1;P1;durP2;ratioP2;P2;SDS_P1;SDS_P2;PMS_P1;PMS_P2;Temp;Humidity;BMP_temperature;BMP_pressure;BME280_temperature;BME280_humidity;BME280_pressure;Samples;Min_cycle;Max_cycle;Signal;HPM_P1;HPM_P2
2023/05/19 00:01:16;;;;;;;0.20;0.20;;;7.50;99.90;;;;;;5074169;28;20463;-91
2023/05/19 00:03:53;;;;;;;0.20;0.20;;;7.40;99.90;;;;;;5070107;28;20555;-91
2023/05/19 00:06:30;;;;;;;0.13;0.13;;;7.20;99.90;;;;;;5070851;28;20485;-90
2023/05/19 00:09:07;;;;;;;0.20;0.20;;;7.20;99.90;;;;;;5085106;28;20472;-90
2023/05/19 00:11:35;;;;;;;0.20;0.20;;;7.20;99.90;;;;;;5073489;28;20526;-89
2023/05/19 00:14:01;;;;;;;0.20;0.20;;;7.20;99.90;;;;;;5072438;28;20488;-90
2023/05/19 00:16:28;;;;;;;0.20;0.20;;;7.20;99.90;;;;;;5062497;28;20594;-90
2023/05/19 00:18:55;;;;;;;0.20;0.20;;;7.10;99.90;;;;;;5072384;28;20435;-90
2023/05/19 00:21:21;;;;;;;0.20;0.20;;;7.10;99.90;;;;;;5057719;28;20496;-90
2023/05/19 00:23:46;;;;;;;0.20;0.20;;;7.10;99.90;;;;;;5070101;28;21017;-90
2023/05/19 00:26:12;;;;;;;0.20;0.20;;;7.10;99.90;;;;;;5072586;28;20737;-90
2023/05/19 00:28:37;;;;;;;0.20;0.20;;;7.10;99.90;;;;;;5073802;28;20183;-90
2023/05/19 00:31:04;;;;;;;0.20;0.20;;;7.10;99.90;;;;;;5074068;28;20521;-89
2023/05/19 00:33:32;;;;;;;0.20;0.20;;;7.00;99.90;;;;;;5068914;28;20281;-90
2023/05/19 00:35:58;;;;;;;0.20;0.20;;;7.00;99.90;;;;;;5074069;28;20533;-90
2023/05/19 00:38:23;;;;;;;0.20;0.20;;;7.00;99.90;;;;;;5074568;28;20466;-90
2023/05/19 00:40:49;;;;;;;0.20;0.20;;;7.00;99.90;;;;;;5075981;28;20243;-90
2023/05/19 00:43:15;;;;;;;0.20;0.20;;;7.00;99.90;;;;;;5072813;28;20190;-90
2023/05/19 00:45:40;;;;;;;0.20;0.20;;;6.90;99.90;;;;;;5064873;28;20183;-90
2023/05/19 00:48:06;;;;;;;0.20;0.20;;;7.10;99.90;;;;;;5073875;28;20269;-90
2023/05/19 00:50:31;;;;;;;0.20;0.20;;;7.10;99.90;;;;;;5071644;28;20265;-90
2023/05/19 00:52:57;;;;;;;0.20;0.20;;;7.00;99.90;;;;;;5064661;28;20206;-90
2023/05/19 00:55:26;;;;;;;0.20;0.20;;;6.90;99.90;;;;;;5064463;28;20557;-89
2023/05/19 00:57:54;;;;;;;0.20;0.20;;;6.90;99.90;;;;;;5073578;28;20182;-90
2023/05/19 01:00:20;;;;;;;0.20;0.20;;;6.90;99.90;;;;;;5073110;28;21000;-90
2023/05/19 01:02:45;;;;;;;0.10;0.10;;;6.90;99.90;;;;;;5073697;28;20483;-90
2023/05/19 01:05:12;;;;;;;0.10;0.10;;;6.90;99.90;;;;;;5068073;28;20178;-90
2023/05/19 01:07:38;;;;;;;0.20;0.20;;;6.80;99.90;;;;;;5083725;28;20177;-89
2023/05/19 01:10:04;;;;;;;0.20;0.20;;;6.90;99.90;;;;;;5079665;28;20535;-90
2023/05/19 01:12:29;;;;;;;0.20;0.20;;;6.80;99.90;;;;;;5071450;28;20507;-89
2023/05/19 01:14:56;;;;;;;0.20;0.20;;;6.80;99.90;;;;;;5069715;28;20182;-89
2023/05/19 01:17:33;;;;;;;0.20;0.20;;;6.80;99.90;;;;;;5066797;28;20189;-90
2023/05/19 01:20:09;;;;;;;0.20;0.20;;;6.90;99.90;;;;;;5066518;28;20819;-90
2023/05/19 01:23:13;;;;;;;0.20;0.20;;;6.80;99.90;;;;;;5071475;28;20499;-89
2023/05/19 01:26:06;;;;;;;0.20;0.20;;;6.70;99.90;;;;;;5078380;28;20501;-90
2023/05/19 01:28:40;;;;;;;0.13;0.13;;;6.70;99.90;;;;;;5069556;28;20440;-89
2023/05/19 01:31:09;;;;;;;0.20;0.20;;;6.60;99.90;;;;;;5064506;28;20435;-90
2023/05/19 01:33:36;;;;;;;0.20;0.20;;;6.70;99.90;;;;;;5076995;28;20522;-90
2023/05/19 01:36:03;;;;;;;0.20;0.20;;;6.60;99.90;;;;;;5065637;28;20928;-90
2023/05/19 01:38:32;;;;;;;0.20;0.20;;;6.60;99.90;;;;;;5068786;28;20455;-90
2023/05/19 01:40:58;;;;;;;0.20;0.20;;;6.50;99.90;;;;;;5067499;28;20436;-90
2023/05/19 01:43:26;;;;;;;0.30;0.30;;;6.40;99.90;;;;;;5069583;28;20458;-89
2023/05/19 01:45:52;;;;;;;0.20;0.20;;;6.40;99.90;;;;;;5069150;28;20544;-89
2023/05/19 01:48:18;;;;;;;0.20;0.20;;;6.40;99.90;;;;;;5071871;28;20529;-89
2023/05/19 01:50:44;;;;;;;0.20;0.20;;;6.30;99.90;;;;;;5069277;28;21011;-89
2023/05/19 01:53:10;;;;;;;0.20;0.20;;;6.40;99.90;;;;;;5079781;28;20446;-89
2023/05/19 01:55:52;;;;;;;0.20;0.20;;;6.30;99.90;;;;;;5072047;28;20803;-89
2023/05/19 01:58:42;;;;;;;0.20;0.20;;;6.20;99.90;;;;;;5063147;28;20174;-88
2023/05/19 02:01:27;;;;;;;0.23;0.23;;;6.20;99.90;;;;;;5069011;28;20964;-90
2023/05/19 02:04:07;;;;;;;0.30;0.30;;;6.10;99.90;;;;;;5068966;28;20451;-89
2023/05/19 02:06:51;;;;;;;0.20;0.20;;;6.10;99.90;;;;;;5080417;28;20951;-89
2023/05/19 02:09:45;;;;;;;0.20;0.20;;;6.10;99.90;;;;;;5069570;28;20444;-89
2023/05/19 02:12:44;;;;;;;0.23;0.23;;;6.00;99.90;;;;;;5062520;28;20459;-89
2023/05/19 02:15:15;;;;;;;0.27;0.27;;;6.00;99.90;;;;;;5043206;28;20447;-89
2023/05/19 02:17:46;;;;;;;0.30;0.30;;;5.80;99.90;;;;;;5072472;28;20932;-89
2023/05/19 02:20:13;;;;;;;0.20;0.20;;;5.80;99.90;;;;;;5062435;28;20957;-90
2023/05/19 02:22:39;;;;;;;0.20;0.20;;;5.90;99.90;;;;;;5068139;28;20590;-88
2023/05/19 02:25:05;;;;;;;0.27;0.27;;;5.90;99.90;;;;;;5064162;28;20528;-89
2023/05/19 02:27:30;;;;;;;0.20;0.20;;;5.90;99.90;;;;;;5061462;28;20222;-89
2023/05/19 02:29:56;;;;;;;0.30;0.30;;;5.80;99.90;;;;;;5074244;28;20513;-88
2023/05/19 02:32:22;;;;;;;0.30;0.30;;;5.80;99.90;;;;;;5075864;28;20174;-89
2023/05/19 02:34:47;;;;;;;0.23;0.23;;;5.70;99.90;;;;;;5070809;28;20174;-89
2023/05/19 02:37:14;;;;;;;0.20;0.20;;;5.90;99.90;;;;;;5070519;28;20600;-89
2023/05/19 02:39:40;;;;;;;0.27;0.27;;;5.80;99.90;;;;;;5070313;28;20219;-89
2023/05/19 02:42:06;;;;;;;0.20;0.20;;;5.60;99.90;;;;;;5069812;28;20559;-90
2023/05/19 02:44:31;;;;;;;0.20;0.20;;;5.70;99.90;;;;;;5068492;28;20952;-89
2023/05/19 02:46:57;;;;;;;0.20;0.20;;;5.70;99.90;;;;;;5072618;28;20182;-89
2023/05/19 02:49:22;;;;;;;0.20;0.20;;;5.70;99.90;;;;;;5071518;28;20194;-89
2023/05/19 02:51:48;;;;;;;0.30;0.30;;;5.70;99.90;;;;;;5079900;28;20555;-88
2023/05/19 02:54:13;;;;;;;0.20;0.20;;;5.80;99.90;;;;;;5069996;28;20227;-89
2023/05/19 02:56:39;;;;;;;0.20;0.20;;;5.70;99.90;;;;;;5068369;28;20182;-89
2023/05/19 02:59:05;;;;;;;0.30;0.30;;;5.70;99.90;;;;;;5066305;28;20280;-88
2023/05/19 03:01:31;;;;;;;0.27;0.27;;;5.80;99.90;;;;;;5061180;28;20317;-88
2023/05/19 03:03:57;;;;;;;0.20;0.20;;;5.90;99.90;;;;;;5084832;28;20265;-89
2023/05/19 03:06:23;;;;;;;0.30;0.30;;;5.90;99.90;;;;;;5075520;28;20447;-89
2023/05/19 03:08:49;;;;;;;0.20;0.20;;;6.10;99.90;;;;;;5075795;28;20444;-89
2023/05/19 03:11:14;;;;;;;0.23;0.23;;;6.10;99.90;;;;;;5080544;28;20192;-88
2023/05/19 03:13:40;;;;;;;0.27;0.27;;;6.00;99.90;;;;;;5063272;28;20443;-89
2023/05/19 03:16:06;;;;;;;0.30;0.30;;;5.90;99.90;;;;;;5068434;28;20269;-89
2023/05/19 03:18:33;;;;;;;0.30;0.30;;;5.80;99.90;;;;;;5070692;28;20208;-89
2023/05/19 03:20:58;;;;;;;0.20;0.20;;;5.80;99.90;;;;;;5068190;28;20559;-89
2023/05/19 03:23:25;;;;;;;0.20;0.20;;;5.70;99.90;;;;;;5065208;28;20911;-88
2023/05/19 03:25:52;;;;;;;0.27;0.27;;;5.70;99.90;;;;;;5069448;28;20190;-89
2023/05/19 03:28:18;;;;;;;0.20;0.20;;;5.70;99.90;;;;;;5072579;28;20458;-89
2023/05/19 03:30:44;;;;;;;0.20;0.20;;;5.80;99.90;;;;;;5068670;28;20436;-88
2023/05/19 03:33:09;;;;;;;0.20;0.20;;;6.00;99.90;;;;;;5056071;28;20269;-88
2023/05/19 03:35:35;;;;;;;0.20;0.20;;;6.00;99.90;;;;;;5064019;28;20634;-89
2023/05/19 03:38:00;;;;;;;0.27;0.27;;;6.00;99.90;;;;;;5070222;28;20177;-89
2023/05/19 03:40:26;;;;;;;0.23;0.23;;;6.10;99.90;;;;;;5070713;28;20224;-89
2023/05/19 03:42:53;;;;;;;0.20;0.20;;;6.10;99.90;;;;;;5066165;28;21000;-89
2023/05/19 03:45:18;;;;;;;0.30;0.30;;;6.00;99.90;;;;;;5064024;28;20202;-88
2023/05/19 03:47:45;;;;;;;0.20;0.20;;;6.10;99.90;;;;;;5068833;28;20476;-89
2023/05/19 03:50:11;;;;;;;0.20;0.20;;;6.00;99.90;;;;;;5070907;28;20166;-89
2023/05/19 03:52:38;;;;;;;0.20;0.20;;;6.00;99.90;;;;;;5069724;28;20440;-89
2023/05/19 03:55:04;;;;;;;0.20;0.20;;;6.10;99.90;;;;;;5071896;28;20269;-89
2023/05/19 03:57:30;;;;;;;0.20;0.20;;;6.10;99.90;;;;;;5067292;28;20440;-89
2023/05/19 03:59:55;;;;;;;0.20;0.20;;;6.10;99.90;;;;;;5065853;28;20959;-88
2023/05/19 04:02:21;;;;;;;0.30;0.30;;;6.30;99.90;;;;;;5064760;28;20258;-89
2023/05/19 04:04:46;;;;;;;0.30;0.30;;;6.30;99.90;;;;;;5070960;28;20272;-89
2023/05/19 04:07:12;;;;;;;0.20;0.20;;;6.30;99.90;;;;;;5059104;28;20183;-89
2023/05/19 04:09:37;;;;;;;0.20;0.20;;;6.40;99.90;;;;;;5066073;28;20186;-89
2023/05/19 04:12:03;;;;;;;0.20;0.20;;;6.50;99.90;;;;;;5069248;28;20190;-89
2023/05/19 04:14:29;;;;;;;0.30;0.30;;;6.50;99.90;;;;;;5067595;28;20186;-89
2023/05/19 04:16:54;;;;;;;0.20;0.20;;;6.50;99.90;;;;;;5071824;28;20177;-88
2023/05/19 04:19:20;;;;;;;0.20;0.20;;;6.50;99.90;;;;;;5069043;28;20209;-88
2023/05/19 04:21:45;;;;;;;0.20;0.20;;;6.60;99.90;;;;;;5070364;28;20237;-88
2023/05/19 04:24:11;;;;;;;0.20;0.20;;;6.70;99.90;;;;;;5070532;28;20647;-88
2023/05/19 04:26:37;;;;;;;0.10;0.10;;;6.70;99.90;;;;;;5073560;28;20173;-89
2023/05/19 04:29:03;;;;;;;0.10;0.10;;;6.80;99.90;;;;;;5074687;28;20543;-88
2023/05/19 04:31:29;;;;;;;0.20;0.20;;;6.80;99.90;;;;;;5064943;28;20424;-89
2023/05/19 04:33:55;;;;;;;0.20;0.20;;;6.80;99.90;;;;;;5087668;28;20454;-89
2023/05/19 04:36:20;;;;;;;0.20;0.20;;;6.90;99.90;;;;;;5079443;28;20190;-89
2023/05/19 04:38:46;;;;;;;0.20;0.20;;;6.90;99.90;;;;;;5066781;28;20197;-88
2023/05/19 04:41:12;;;;;;;0.10;0.10;;;6.90;99.90;;;;;;5071102;28;20231;-89
2023/05/19 04:43:40;;;;;;;0.17;0.17;;;7.00;99.90;;;;;;5070231;28;20474;-89
2023/05/19 04:46:12;;;;;;;0.20;0.20;;;7.10;99.90;;;;;;5073851;28;20665;-88
2023/05/19 04:48:38;;;;;;;0.13;0.13;;;7.10;99.90;;;;;;5061236;28;20435;-89
2023/05/19 04:51:04;;;;;;;0.20;0.20;;;7.20;99.90;;;;;;5067447;28;20436;-87
2023/05/19 04:53:30;;;;;;;0.20;0.20;;;7.30;99.90;;;;;;5062267;28;20443;-87
2023/05/19 04:55:57;;;;;;;0.20;0.20;;;7.40;99.90;;;;;;5065518;28;20468;-88
2023/05/19 04:58:26;;;;;;;0.20;0.20;;;7.50;99.90;;;;;;5066974;28;20186;-88
2023/05/19 05:00:54;;;;;;;0.20;0.20;;;7.70;99.90;;;;;;5069752;28;20436;-89
2023/05/19 05:03:23;;;;;;;0.17;0.17;;;7.80;99.90;;;;;;5068297;28;20547;-89
2023/05/19 05:05:48;;;;;;;0.17;0.17;;;7.90;99.90;;;;;;5068635;28;20440;-88
2023/05/19 05:08:20;;;;;;;0.10;0.10;;;8.00;99.90;;;;;;5068081;28;20443;-89
2023/05/19 05:10:46;;;;;;;0.20;0.20;;;8.00;99.90;;;;;;5070244;28;20201;-88
2023/05/19 05:13:12;;;;;;;0.20;0.20;;;8.10;99.90;;;;;;5062426;28;20547;-93
2023/05/19 05:15:40;;;;;;;0.10;0.10;;;8.10;99.90;;;;;;5071638;28;20664;-93
2023/05/19 05:18:05;;;;;;;0.20;0.20;;;8.20;99.90;;;;;;5074235;28;20478;-90
2023/05/19 05:20:31;;;;;;;0.10;0.10;;;8.30;99.90;;;;;;5074034;28;20472;-93
2023/05/19 05:22:57;;;;;;;0.17;0.17;;;8.40;99.90;;;;;;5072436;28;20240;-93
2023/05/19 05:25:23;;;;;;;0.10;0.10;;;8.50;99.90;;;;;;5054699;28;20430;-92
2023/05/19 05:27:48;;;;;;;0.10;0.10;;;8.50;99.90;;;;;;5071409;28;20182;-91
2023/05/19 05:30:14;;;;;;;0.13;0.13;;;8.60;99.90;;;;;;5060730;28;20174;-89
2023/05/19 05:32:40;;;;;;;0.10;0.10;;;8.70;99.90;;;;;;5071711;28;20202;-92
2023/05/19 05:35:06;;;;;;;0.13;0.13;;;8.80;99.90;;;;;;5082939;28;20192;-91
2023/05/19 05:37:31;;;;;;;0.10;0.10;;;8.90;99.90;;;;;;5084172;28;20186;-89
2023/05/19 05:39:57;;;;;;;0.20;0.20;;;9.00;99.90;;;;;;5075063;28;20235;-91
2023/05/19 05:42:22;;;;;;;0.10;0.10;;;9.10;99.90;;;;;;5073830;28;20209;-91
2023/05/19 05:44:48;;;;;;;0.10;0.10;;;9.30;99.90;;;;;;5067803;28;20182;-90
2023/05/19 05:47:14;;;;;;;0.10;0.10;;;9.40;99.90;;;;;;5074224;28;20175;-89
2023/05/19 05:49:40;;;;;;;0.10;0.10;;;9.50;99.90;;;;;;5073328;28;20695;-91
2023/05/19 05:52:09;;;;;;;0.10;0.10;;;9.50;99.90;;;;;;5069462;28;20499;-89
2023/05/19 05:54:35;;;;;;;0.10;0.10;;;9.60;99.90;;;;;;5066454;28;20440;-92
2023/05/19 05:57:01;;;;;;;0.10;0.10;;;9.70;99.90;;;;;;5075095;28;20466;-91
2023/05/19 05:59:26;;;;;;;0.10;0.10;;;9.80;99.90;;;;;;5073484;28;20185;-88
2023/05/19 06:01:52;;;;;;;0.10;0.10;;;9.90;99.90;;;;;;5073202;28;20483;-90
2023/05/19 06:04:19;;;;;;;0.10;0.10;;;10.00;99.90;;;;;;5072125;28;20182;-92
2023/05/19 06:06:45;;;;;;;0.10;0.10;;;10.10;99.90;;;;;;5071804;28;20186;-88
2023/05/19 06:09:11;;;;;;;0.10;0.10;;;10.20;99.90;;;;;;5072257;28;20940;-90
2023/05/19 06:11:36;;;;;;;0.10;0.10;;;10.30;99.90;;;;;;5072005;28;20185;-89
2023/05/19 06:14:02;;;;;;;0.10;0.10;;;10.40;99.90;;;;;;5073466;28;20188;-90
2023/05/19 06:16:27;;;;;;;0.10;0.10;;;10.50;99.90;;;;;;5074442;28;20180;-90
2023/05/19 06:18:53;;;;;;;0.10;0.10;;;10.60;99.90;;;;;;5073580;28;20220;-91
2023/05/19 06:21:19;;;;;;;0.10;0.10;;;10.70;99.90;;;;;;5072812;28;20273;-92
2023/05/19 06:23:44;;;;;;;0.10;0.10;;;10.80;99.90;;;;;;5072985;28;20190;-91
2023/05/19 06:26:10;;;;;;;0.10;0.10;;;11.00;99.90;;;;;;5073523;28;20189;-91
2023/05/19 06:28:35;;;;;;;0.10;0.10;;;11.00;99.90;;;;;;5073898;28;20236;-91
2023/05/19 06:31:01;;;;;;;0.10;0.10;;;11.00;99.90;;;;;;5076867;28;20250;-91
2023/05/19 06:33:26;;;;;;;0.10;0.10;;;11.20;99.90;;;;;;5073566;28;20252;-92
2023/05/19 06:35:52;;;;;;;0.10;0.10;;;11.30;99.90;;;;;;5073198;28;20579;-92
2023/05/19 06:38:17;;;;;;;0.00;0.00;;;11.50;99.90;;;;;;5071173;28;20254;-91
2023/05/19 06:40:43;;;;;;;0.10;0.10;;;11.60;99.90;;;;;;5072963;28;20174;-93
2023/05/19 06:43:08;;;;;;;0.10;0.10;;;11.80;99.90;;;;;;5072920;28;20210;-92
2023/05/19 06:45:34;;;;;;;0.10;0.10;;;11.90;99.90;;;;;;5071394;28;20262;-93
2023/05/19 06:48:00;;;;;;;0.03;0.03;;;11.90;99.90;;;;;;5069986;28;20189;-94
2023/05/19 06:50:25;;;;;;;0.00;0.00;;;12.00;99.90;;;;;;5073690;28;20197;-94
2023/05/19 06:52:51;;;;;;;0.03;0.03;;;12.10;99.90;;;;;;5073881;28;20185;-94
2023/05/19 06:55:17;;;;;;;0.03;0.03;;;11.90;99.90;;;;;;5054559;28;20194;-93
2023/05/19 06:57:42;;;;;;;0.00;0.00;;;11.80;99.90;;;;;;5070708;28;20531;-94
2023/05/19 07:00:11;;;;;;;0.00;0.00;;;11.90;99.90;;;;;;5078402;28;20201;-93
2023/05/19 07:02:37;;;;;;;0.10;0.10;;;11.90;99.90;;;;;;5069671;28;20312;-92
2023/05/19 07:05:03;;;;;;;0.07;0.07;;;11.90;99.90;;;;;;5068430;28;20445;-93
2023/05/19 07:07:29;;;;;;;0.10;0.10;;;11.90;99.90;;;;;;5076546;28;20493;-93
2023/05/19 07:09:54;;;;;;;0.00;0.00;;;11.90;99.90;;;;;;5073744;28;20491;-92
2023/05/19 07:12:20;;;;;;;0.10;0.10;;;11.90;99.90;;;;;;5074893;28;20184;-92
2023/05/19 07:14:45;;;;;;;0.10;0.10;;;11.90;99.90;;;;;;5070188;28;20843;-93
2023/05/19 07:17:11;;;;;;;0.10;0.10;;;12.00;99.90;;;;;;5068207;28;20193;-89
2023/05/19 07:19:37;;;;;;;0.00;0.00;;;12.30;99.90;;;;;;5071552;28;20238;-93
2023/05/19 07:22:02;;;;;;;0.10;0.10;;;12.30;99.90;;;;;;5073177;28;20945;-94
2023/05/19 07:24:30;;;;;;;0.10;0.10;;;12.30;99.90;;;;;;5069745;28;20647;-92
2023/05/19 07:26:56;;;;;;;0.10;0.10;;;12.40;99.90;;;;;;5060637;28;20986;-92
2023/05/19 07:29:21;;;;;;;0.00;0.00;;;12.50;99.90;;;;;;5063172;28;20441;-93
2023/05/19 07:31:47;;;;;;;0.10;0.10;;;12.70;99.90;;;;;;5069746;28;20700;-92
2023/05/19 07:34:12;;;;;;;0.00;0.00;;;12.80;99.90;;;;;;5070534;28;20291;-92
2023/05/19 07:36:38;;;;;;;0.00;0.00;;;12.80;99.90;;;;;;5068165;28;20200;-90
2023/05/19 07:39:04;;;;;;;0.07;0.07;;;12.60;99.90;;;;;;5070261;28;20185;-90
2023/05/19 07:41:29;;;;;;;0.10;0.10;;;12.70;99.90;;;;;;5070659;28;20212;-91
2023/05/19 07:43:55;;;;;;;0.00;0.00;;;12.90;99.90;;;;;;5068339;28;20182;-89
2023/05/19 07:46:20;;;;;;;0.10;0.10;;;12.90;99.90;;;;;;5070237;28;20646;-90
2023/05/19 07:48:46;;;;;;;0.03;0.03;;;13.00;99.90;;;;;;5066663;28;20178;-93
2023/05/19 07:51:12;;;;;;;0.00;0.00;;;13.10;99.90;;;;;;5059223;28;20451;-91
2023/05/19 07:53:38;;;;;;;0.00;0.00;;;13.20;99.90;;;;;;5063968;28;20179;-92
2023/05/19 07:56:04;;;;;;;0.00;0.00;;;13.00;99.90;;;;;;5071279;28;20205;-92
2023/05/19 07:58:29;;;;;;;0.00;0.00;;;12.90;99.90;;;;;;5072783;28;20238;-90
2023/05/19 08:00:58;;;;;;;0.03;0.03;;;12.80;99.90;;;;;;5064880;28;20646;-91
2023/05/19 08:03:25;;;;;;;0.00;0.00;;;13.10;99.90;;;;;;5071456;28;20221;-92
2023/05/19 08:05:50;;;;;;;0.10;0.10;;;13.20;99.90;;;;;;5072059;28;20428;-91
2023/05/19 08:08:16;;;;;;;0.00;0.00;;;13.30;99.90;;;;;;5074858;28;21027;-90
2023/05/19 08:10:42;;;;;;;0.00;0.00;;;13.30;99.90;;;;;;5065448;28;21413;-90
2023/05/19 08:13:07;;;;;;;0.00;0.00;;;13.40;99.90;;;;;;5069273;28;20225;-91
2023/05/19 08:15:33;;;;;;;0.00;0.00;;;13.60;99.90;;;;;;5073803;28;20608;-91
2023/05/19 08:17:58;;;;;;;0.10;0.10;;;13.60;99.90;;;;;;5075761;28;20538;-90
2023/05/19 08:20:24;;;;;;;0.10;0.10;;;13.80;99.90;;;;;;5077559;28;20331;-92
2023/05/19 08:22:49;;;;;;;0.03;0.03;;;14.00;99.90;;;;;;5074589;28;20217;-92
2023/05/19 08:25:15;;;;;;;0.00;0.00;;;14.40;99.90;;;;;;5070388;28;20178;-90
2023/05/19 08:27:40;;;;;;;0.10;0.10;;;14.60;99.90;;;;;;5072354;28;20654;-91
2023/05/19 08:30:06;;;;;;;0.00;0.00;;;14.60;99.90;;;;;;5073301;28;20691;-89
2023/05/19 08:32:32;;;;;;;0.00;0.00;;;14.20;99.90;;;;;;5076829;28;20190;-90
2023/05/19 08:34:57;;;;;;;0.00;0.00;;;14.40;99.90;;;;;;5075810;28;20903;-91
2023/05/19 08:37:23;;;;;;;0.00;0.00;;;14.50;99.90;;;;;;5075015;28;20300;-91
2023/05/19 08:39:48;;;;;;;0.00;0.00;;;14.40;99.90;;;;;;5071873;28;20233;-90
2023/05/19 08:42:14;;;;;;;0.00;0.00;;;14.20;99.90;;;;;;5072252;28;20696;-90
2023/05/19 08:44:41;;;;;;;0.00;0.00;;;14.40;99.90;;;;;;5069567;28;20216;-89
2023/05/19 08:47:12;;;;;;;0.03;0.03;;;14.30;99.90;;;;;;5072990;28;20186;-91
2023/05/19 08:49:45;;;;;;;0.00;0.00;;;14.40;99.90;;;;;;5071764;28;20813;-89
2023/05/19 08:52:44;;;;;;;0.00;0.00;;;14.80;99.90;;;;;;5070798;28;20443;-89
2023/05/19 08:55:20;;;;;;;0.00;0.00;;;14.70;99.90;;;;;;5069110;28;20439;-90
2023/05/19 08:57:48;;;;;;;0.00;0.00;;;15.10;99.90;;;;;;5073290;28;20473;-89
2023/05/19 09:00:15;;;;;;;0.00;0.00;;;15.60;99.90;;;;;;5067522;28;20436;-88
2023/05/19 09:02:41;;;;;;;0.00;0.00;;;15.70;99.90;;;;;;5070947;28;20519;-90
2023/05/19 09:05:08;;;;;;;0.00;0.00;;;15.40;99.90;;;;;;5073000;28;20444;-90
2023/05/19 09:07:36;;;;;;;0.00;0.00;;;15.60;99.90;;;;;;5075221;28;20465;-89
2023/05/19 09:10:02;;;;;;;0.00;0.00;;;15.40;99.90;;;;;;5079181;28;20459;-90
2023/05/19 09:12:28;;;;;;;0.00;0.00;;;15.80;99.90;;;;;;5085836;28;20447;-87
2023/05/19 09:14:54;;;;;;;0.00;0.00;;;16.00;99.90;;;;;;5080225;28;20523;-88
2023/05/19 09:17:20;;;;;;;0.00;0.00;;;16.20;99.90;;;;;;5073034;28;20193;-89
2023/05/19 09:19:48;;;;;;;0.00;0.00;;;16.20;99.90;;;;;;5081570;28;20460;-89
2023/05/19 09:22:14;;;;;;;0.00;0.00;;;15.90;99.90;;;;;;5075171;28;20220;-91
2023/05/19 09:24:41;;;;;;;0.00;0.00;;;15.80;99.90;;;;;;5070604;28;20451;-89
2023/05/19 09:27:07;;;;;;;0.00;0.00;;;15.90;99.90;;;;;;5083843;28;20479;-88
2023/05/19 09:29:32;;;;;;;0.00;0.00;;;16.00;99.90;;;;;;5084079;28;20482;-88
2023/05/19 09:32:03;;;;;;;0.00;0.00;;;16.10;99.90;;;;;;5074507;28;20246;-89
2023/05/19 09:34:29;;;;;;;0.00;0.00;;;15.90;99.90;;;;;;5073475;28;20230;-88
2023/05/19 09:36:56;;;;;;;0.00;0.00;;;16.10;99.90;;;;;;5079319;28;20523;-88
2023/05/19 09:39:23;;;;;;;0.00;0.00;;;16.50;99.90;;;;;;5085408;28;20534;-89
2023/05/19 09:41:53;;;;;;;0.00;0.00;;;16.40;99.90;;;;;;5069450;28;20479;-88
2023/05/19 09:44:22;;;;;;;0.00;0.00;;;16.70;99.90;;;;;;5072193;28;20443;-88
2023/05/19 09:46:52;;;;;;;0.00;0.00;;;16.40;99.90;;;;;;5076538;28;20427;-88
2023/05/19 09:49:26;;;;;;;0.00;0.00;;;16.60;99.90;;;;;;5083122;28;20822;-88
2023/05/19 09:51:55;;;;;;;0.00;0.00;;;16.80;99.90;;;;;;5067207;28;20487;-88
2023/05/19 09:54:26;;;;;;;0.00;0.00;;;17.20;99.90;;;;;;5061913;28;20451;-88
2023/05/19 09:57:06;;;;;;;0.00;0.00;;;17.50;99.90;;;;;;5071966;28;20519;-89
2023/05/19 09:59:32;;;;;;;0.00;0.00;;;17.80;99.90;;;;;;5081539;28;20448;-89
2023/05/19 10:01:59;;;;;;;0.00;0.00;;;18.10;99.90;;;;;;5066324;28;20476;-87
2023/05/19 10:04:28;;;;;;;0.00;0.00;;;17.90;99.90;;;;;;5081870;28;20185;-92
2023/05/19 10:06:58;;;;;;;0.00;0.00;;;17.80;99.90;;;;;;5070324;28;20473;-89
2023/05/19 10:09:25;;;;;;;0.00;0.00;;;17.30;99.90;;;;;;5067791;28;20455;-89
2023/05/19 10:11:56;;;;;;;0.00;0.00;;;17.30;99.90;;;;;;5065624;28;20444;-89
2023/05/19 10:14:25;;;;;;;0.00;0.00;;;18.30;99.90;;;;;;5065278;28;20446;-88
2023/05/19 10:16:52;;;;;;;0.00;0.00;;;18.70;99.90;;;;;;5070234;28;20474;-89
2023/05/19 10:19:24;;;;;;;0.00;0.00;;;18.60;99.90;;;;;;5068812;28;20517;-88
2023/05/19 10:21:51;;;;;;;0.00;0.00;;;18.50;99.90;;;;;;5070833;28;20521;-87
2023/05/19 10:24:17;;;;;;;0.00;0.00;;;18.10;99.90;;;;;;5071562;28;20987;-90
2023/05/19 10:26:53;;;;;;;0.00;0.00;;;17.60;99.90;;;;;;5072212;28;20456;-91
2023/05/19 10:29:24;;;;;;;0.00;0.00;;;17.70;99.90;;;;;;5088448;28;20435;-92
2023/05/19 10:31:51;;;;;;;0.00;0.00;;;17.50;99.90;;;;;;5073177;28;20466;-90
2023/05/19 10:34:28;;;;;;;0.00;0.00;;;17.90;99.90;;;;;;5072339;28;20527;-94
2023/05/19 10:37:15;;;;;;;0.00;0.00;;;17.30;99.90;;;;;;5067981;28;20781;-95
2023/05/19 10:39:42;;;;;;;0.00;0.00;;;18.10;99.90;;;;;;5057277;28;20497;-95
2023/05/19 10:42:23;;;;;;;0.00;0.00;;;18.70;99.90;;;;;;5068355;28;20487;-93
2023/05/19 10:45:09;;;;;;;0.00;0.00;;;18.90;99.90;;;;;;5070782;28;20967;-90
2023/05/19 10:47:35;;;;;;;0.00;0.00;;;19.00;99.90;;;;;;5069250;28;20440;-94
2023/05/19 10:50:00;;;;;;;0.00;0.00;;;19.20;99.90;;;;;;5076358;28;20807;-94
2023/05/19 10:52:28;;;;;;;0.00;0.00;;;19.40;99.90;;;;;;5074052;28;20190;-94
2023/05/19 10:54:54;;;;;;;0.00;0.00;;;19.70;99.90;;;;;;5067563;28;20717;-94
2023/05/19 10:57:30;;;;;;;0.00;0.00;;;19.60;99.90;;;;;;5071467;28;20462;-94
2023/05/19 10:59:56;;;;;;;0.00;0.00;;;19.50;98.20;;;;;;5076443;28;20221;-91
2023/05/19 11:02:46;;;;;;;0.00;0.00;;;19.90;99.90;;;;;;5071445;28;20968;-94
2023/05/19 11:05:19;;;;;;;0.00;0.00;;;20.50;99.90;;;;;;5069430;28;20435;-92
2023/05/19 11:07:55;;;;;;;0.00;0.00;;;21.10;99.90;;;;;;5071081;28;20447;-95
2023/05/19 11:10:24;;;;;;;0.00;0.00;;;20.70;98.60;;;;;;5061756;28;20440;-95
2023/05/19 11:12:50;;;;;;;0.00;0.00;;;20.40;99.90;;;;;;5072632;28;20490;-94
2023/05/19 11:15:16;;;;;;;0.00;0.00;;;20.70;99.90;;;;;;5068574;28;20429;-93
2023/05/19 11:17:47;;;;;;;0.00;0.00;;;21.30;99.90;;;;;;5068077;28;20990;-90
2023/05/19 11:20:27;;;;;;;0.00;0.00;;;21.90;99.90;;;;;;5062305;28;20635;-92
2023/05/19 11:23:06;;;;;;;0.00;0.00;;;21.40;97.80;;;;;;5068714;28;20892;-91
2023/05/19 11:25:46;;;;;;;0.00;0.00;;;21.80;99.90;;;;;;5059236;28;20429;-92
2023/05/19 11:28:16;;;;;;;0.00;0.00;;;21.40;99.80;;;;;;5070512;28;20443;-92
2023/05/19 11:30:43;;;;;;;0.00;0.00;;;21.90;99.90;;;;;;5074466;28;20800;-92
2023/05/19 11:33:09;;;;;;;0.00;0.00;;;22.30;98.70;;;;;;5082134;28;20487;-92
2023/05/19 11:35:36;;;;;;;0.00;0.00;;;22.40;99.90;;;;;;5070151;28;20456;-92
2023/05/19 11:38:02;;;;;;;0.00;0.00;;;21.50;98.10;;;;;;5078079;28;20502;-91
2023/05/19 11:40:28;;;;;;;0.00;0.00;;;21.90;99.90;;;;;;5063588;28;20436;-92
2023/05/19 11:42:54;;;;;;;0.00;0.00;;;22.00;99.00;;;;;;5070178;28;20471;-92
2023/05/19 11:45:24;;;;;;;0.00;0.00;;;22.10;98.30;;;;;;5068182;28;20505;-92
2023/05/19 11:47:50;;;;;;;0.00;0.00;;;22.40;97.80;;;;;;5069851;28;20456;-93
2023/05/19 11:50:16;;;;;;;0.00;0.00;;;21.80;97.00;;;;;;5071757;28;20472;-91
2023/05/19 11:52:46;;;;;;;0.00;0.00;;;21.10;97.50;;;;;;5076809;28;20190;-93
2023/05/19 11:55:20;;;;;;;0.00;0.00;;;20.70;98.00;;;;;;5073825;28;20201;-91
2023/05/19 11:58:03;;;;;;;0.00;0.00;;;21.70;99.10;;;;;;5073779;28;20447;-92
2023/05/19 12:00:35;;;;;;;0.00;0.00;;;21.50;94.50;;;;;;5072150;28;20443;-93
2023/05/19 12:03:01;;;;;;;0.00;0.00;;;22.50;97.80;;;;;;5063651;28;20525;-93
2023/05/19 12:05:28;;;;;;;0.00;0.00;;;22.30;95.00;;;;;;5077351;28;20439;-92
2023/05/19 12:07:53;;;;;;;0.00;0.00;;;22.80;95.80;;;;;;5073771;28;20648;-93
2023/05/19 12:10:23;;;;;;;0.00;0.00;;;22.80;94.90;;;;;;5086058;28;20538;-93
2023/05/19 12:12:53;;;;;;;0.00;0.00;;;22.90;94.70;;;;;;5080412;28;20195;-89
2023/05/19 12:15:20;;;;;;;0.00;0.00;;;23.00;94.40;;;;;;5070310;28;20432;-90
2023/05/19 12:17:49;;;;;;;0.00;0.00;;;23.20;93.90;;;;;;5083521;28;20803;-90
2023/05/19 12:20:14;;;;;;;0.00;0.00;;;22.50;94.30;;;;;;5078196;28;20467;-92
2023/05/19 12:22:40;;;;;;;0.00;0.00;;;22.50;93.50;;;;;;5072264;28;20499;-93
2023/05/19 12:25:06;;;;;;;0.00;0.00;;;22.50;93.70;;;;;;5074777;28;20199;-93
2023/05/19 12:27:35;;;;;;;0.00;0.00;;;22.60;92.00;;;;;;5073790;28;20635;-93
2023/05/19 12:30:03;;;;;;;0.00;0.00;;;22.80;94.90;;;;;;5074028;28;20178;-93
2023/05/19 12:32:28;;;;;;;0.00;0.00;;;22.90;93.20;;;;;;5081149;28;20904;-94
2023/05/19 12:34:57;;;;;;;0.00;0.00;;;22.50;93.20;;;;;;5086738;28;20527;-94
2023/05/19 12:37:26;;;;;;;0.00;0.00;;;23.30;93.20;;;;;;5080745;28;20273;-94
2023/05/19 12:39:52;;;;;;;0.00;0.00;;;23.00;92.00;;;;;;5066916;28;20472;-95
2023/05/19 12:42:17;;;;;;;0.00;0.00;;;23.20;91.60;;;;;;5077863;28;20494;-94
2023/05/19 12:44:51;;;;;;;0.00;0.00;;;22.60;92.70;;;;;;5076434;28;20697;-91
2023/05/19 12:47:18;;;;;;;0.00;0.00;;;22.20;90.30;;;;;;5077541;28;20328;-93
2023/05/19 12:50:13;;;;;;;0.00;0.00;;;22.20;93.30;;;;;;5073460;28;21091;-95
2023/05/19 12:52:47;;;;;;;0.00;0.00;;;22.60;94.70;;;;;;5060730;28;20458;-94
2023/05/19 12:55:13;;;;;;;0.00;0.00;;;22.30;93.30;;;;;;5067208;28;20451;-93